Time;durP1;ratioP1;P1;durP2;ratioP2;P2;SDS_P1;SDS_P2;PMS_P1;PMS_P2;Temp;Humidity;BMP_temperature;BMP_pressure;BME280_temperature;BME280_humidity;BME280_pressure;Samples;Min_cycle;Max_cycle;Signal;HPM_P1;HPM_P2
2021/07/15 00:00:33;;;;;;;10.93;9.83;;;19.40;99.90;;;;;;5036267;28;20433;-67
2021/07/15 00:03:06;;;;;;;11.23;10.10;;;19.40;99.90;;;;;;5035949;28;20428;-67
2021/07/15 00:05:36;;;;;;;12.20;11.10;;;19.30;99.90;;;;;;5054035;28;20866;-68
2021/07/15 00:08:06;;;;;;;12.23;11.03;;;19.10;99.90;;;;;;5035475;28;20467;-67
2021/07/15 00:10:37;;;;;;;11.07;10.07;;;19.00;99.90;;;;;;5053383;28;20467;-67
2021/07/15 00:13:07;;;;;;;13.30;12.03;;;19.00;99.90;;;;;;5036633;28;20418;-67
2021/07/15 00:15:38;;;;;;;13.33;12.03;;;19.00;99.90;;;;;;5053437;28;20930;-67
2021/07/15 00:18:10;;;;;;;13.33;11.97;;;19.10;99.90;;;;;;5053324;28;20424;-67
2021/07/15 00:20:40;;;;;;;11.23;10.20;;;19.00;99.90;;;;;;5053161;28;20458;-67
2021/07/15 00:23:09;;;;;;;12.50;11.30;;;19.10;99.90;;;;;;5035050;28;20474;-65
2021/07/15 00:25:38;;;;;;;11.40;10.23;;;19.30;99.90;;;;;;5053164;28;20433;-67
2021/07/15 00:28:07;;;;;;;10.90;9.37;;;19.40;99.90;;;;;;5053173;28;20497;-67
2021/07/15 00:30:36;;;;;;;12.90;11.60;;;19.20;99.90;;;;;;5035567;28;20856;-67
2021/07/15 00:33:04;;;;;;;11.00;9.90;;;19.20;99.90;;;;;;5035095;28;20447;-67
2021/07/15 00:35:35;;;;;;;11.90;10.70;;;19.20;99.90;;;;;;5035135;28;20865;-67
2021/07/15 00:38:05;;;;;;;11.93;10.83;;;19.30;99.90;;;;;;5035104;28;20798;-67
2021/07/15 00:40:35;;;;;;;11.10;9.93;;;19.20;99.90;;;;;;5052712;28;21028;-67
2021/07/15 00:43:03;;;;;;;11.67;10.57;;;19.40;99.90;;;;;;5034585;28;20451;-66
2021/07/15 00:45:32;;;;;;;10.80;9.40;;;19.50;99.90;;;;;;5052611;28;20761;-68
2021/07/15 00:48:01;;;;;;;10.40;9.50;;;19.40;99.90;;;;;;5034378;28;20437;-67
2021/07/15 00:50:30;;;;;;;12.60;11.40;;;19.40;99.90;;;;;;5035308;28;20482;-67
2021/07/15 00:53:03;;;;;;;12.27;10.97;;;19.40;99.90;;;;;;5035096;28;20438;-67
2021/07/15 00:55:33;;;;;;;12.10;10.90;;;19.30;99.90;;;;;;5035078;28;20475;-66
2021/07/15 00:58:02;;;;;;;12.00;10.90;;;19.40;99.90;;;;;;5034837;28;20442;-67
2021/07/15 01:00:31;;;;;;;11.80;10.60;;;19.40;99.90;;;;;;5052672;28;20854;-66
2021/07/15 01:02:59;;;;;;;12.60;11.30;;;19.30;99.90;;;;;;5034655;28;20450;-67
2021/07/15 01:05:32;;;;;;;12.03;10.87;;;19.10;99.90;;;;;;5034650;28;20423;-68
2021/07/15 01:08:02;;;;;;;12.47;11.20;;;18.80;99.90;;;;;;5034665;28;20445;-67
2021/07/15 01:10:33;;;;;;;12.37;11.10;;;18.60;99.90;;;;;;5034862;28;21043;-67
2021/07/15 01:13:15;;;;;;;11.90;10.23;;;18.50;99.90;;;;;;5034614;28;20443;-68
2021/07/15 01:16:04;;;;;;;13.80;11.60;;;18.40;99.90;;;;;;5052706;28;20419;-66
2021/07/15 01:18:53;;;;;;;11.47;10.37;;;18.40;99.90;;;;;;5035121;28;20446;-66
2021/07/15 01:21:56;;;;;;;12.60;11.30;;;18.20;99.90;;;;;;5032496;28;20517;-66
2021/07/15 01:25:04;;;;;;;11.53;10.33;;;18.20;99.90;;;;;;5034702;28;20484;-67
2021/07/15 01:28:04;;;;;;;9.97;8.97;;;18.60;99.90;;;;;;5034564;28;20918;-67
2021/07/15 01:30:38;;;;;;;9.03;8.17;;;18.70;99.90;;;;;;5034912;28;20502;-68
2021/07/15 01:33:16;;;;;;;9.73;8.73;;;18.50;99.90;;;;;;5034038;28;20868;-65
2021/07/15 01:35:49;;;;;;;12.37;10.30;;;18.40;99.90;;;;;;5034729;28;20423;-64
2021/07/15 01:38:20;;;;;;;9.77;8.77;;;18.50;99.90;;;;;;5034304;28;20443;-65
2021/07/15 01:40:54;;;;;;;11.27;10.17;;;18.50;99.90;;;;;;5034449;28;20932;-66
2021/07/15 01:43:28;;;;;;;10.60;8.50;;;18.50;99.90;;;;;;5052089;28;20401;-66
2021/07/15 01:45:58;;;;;;;11.80;9.80;;;18.80;99.90;;;;;;5034380;28;20797;-65
2021/07/15 01:48:26;;;;;;;10.60;9.60;;;18.90;99.90;;;;;;5052195;28;20427;-65
2021/07/15 01:50:55;;;;;;;10.03;9.00;;;18.70;99.90;;;;;;5034583;28;20484;-65
2021/07/15 01:53:24;;;;;;;10.47;9.53;;;18.60;99.90;;;;;;5034017;28;20507;-66
2021/07/15 01:55:53;;;;;;;12.47;11.23;;;18.60;99.90;;;;;;5033977;28;20809;-66
2021/07/15 01:58:23;;;;;;;11.50;10.40;;;18.50;99.90;;;;;;5033397;28;20413;-66
2021/07/15 02:00:52;;;;;;;11.73;9.73;;;18.50;99.90;;;;;;5051743;28;20509;-67
2021/07/15 02:03:23;;;;;;;11.73;10.43;;;18.50;99.90;;;;;;5033679;28;20482;-66
2021/07/15 02:05:53;;;;;;;11.03;10.03;;;18.40;99.90;;;;;;5033615;28;20420;-68
2021/07/15 02:08:23;;;;;;;9.53;8.50;;;18.40;99.90;;;;;;5033140;28;20892;-66
2021/07/15 02:10:54;;;;;;;7.93;7.13;;;18.50;99.90;;;;;;5033432;28;20453;-68
2021/07/15 02:13:24;;;;;;;11.90;10.17;;;18.40;99.90;;;;;;5033487;28;20443;-66
2021/07/15 02:15:54;;;;;;;9.10;8.00;;;18.40;99.90;;;;;;5033562;28;20930;-66
2021/07/15 02:18:24;;;;;;;9.20;8.40;;;18.30;99.90;;;;;;5051474;28;20423;-67
2021/07/15 02:20:54;;;;;;;10.67;9.73;;;18.30;99.90;;;;;;5033596;28;20467;-66
2021/07/15 02:23:24;;;;;;;9.17;8.27;;;18.20;99.90;;;;;;5051576;28;20451;-66
2021/07/15 02:25:53;;;;;;;8.90;8.00;;;18.20;99.90;;;;;;5033333;28;20466;-66
2021/07/15 02:28:24;;;;;;;8.40;7.60;;;18.10;99.90;;;;;;5033386;28;20466;-67
2021/07/15 02:30:57;;;;;;;8.93;8.10;;;18.00;99.90;;;;;;5033252;28;20471;-67
2021/07/15 02:33:29;;;;;;;9.43;8.40;;;18.10;99.90;;;;;;5033719;28;20446;-66
2021/07/15 02:36:02;;;;;;;9.13;7.93;;;18.10;99.90;;;;;;5033331;28;20414;-68
2021/07/15 02:38:32;;;;;;;9.27;8.37;;;18.20;99.90;;;;;;5033309;28;20412;-67
2021/07/15 02:41:01;;;;;;;10.87;9.63;;;18.10;99.90;;;;;;5033422;28;20528;-66
2021/07/15 02:43:30;;;;;;;7.50;6.70;;;18.10;99.90;;;;;;5033505;28;20425;-66
2021/07/15 02:45:58;;;;;;;8.50;7.57;;;18.00;99.90;;;;;;5031874;28;20449;-68
2021/07/15 02:48:28;;;;;;;6.97;6.30;;;17.90;99.90;;;;;;5033148;28;20987;-68
2021/07/15 02:50:57;;;;;;;6.60;5.90;;;17.90;99.90;;;;;;5032719;28;20460;-65
2021/07/15 02:53:28;;;;;;;7.20;6.50;;;17.80;99.90;;;;;;5050849;28;20419;-64
2021/07/15 02:56:07;;;;;;;7.17;6.47;;;17.70;99.90;;;;;;5032678;28;20448;-64
2021/07/15 02:58:45;;;;;;;7.87;7.07;;;17.70;99.90;;;;;;5032906;28;20927;-65
2021/07/15 03:01:20;;;;;;;8.10;7.30;;;17.60;99.90;;;;;;5032586;28;20440;-65
2021/07/15 03:04:00;;;;;;;9.63;7.90;;;17.70;99.90;;;;;;5051149;28;20422;-65
2021/07/15 03:06:35;;;;;;;11.23;7.63;;;17.90;99.90;;;;;;5032992;28;20961;-64
2021/07/15 03:09:09;;;;;;;7.87;7.17;;;17.70;99.90;;;;;;5032975;28;20470;-65
2021/07/15 03:11:42;;;;;;;10.53;8.83;;;17.60;99.90;;;;;;5032872;28;20459;-65
2021/07/15 03:14:10;;;;;;;6.80;6.17;;;17.60;99.90;;;;;;5032672;28;20912;-65
2021/07/15 03:16:41;;;;;;;6.63;5.93;;;17.60;99.90;;;;;;5032608;28;20447;-66
2021/07/15 03:19:13;;;;;;;7.00;6.40;;;17.60;99.90;;;;;;5033099;28;21003;-66
2021/07/15 03:21:42;;;;;;;7.20;6.50;;;17.80;99.90;;;;;;5050433;28;20479;-65
2021/07/15 03:24:13;;;;;;;8.80;7.50;;;17.70;99.90;;;;;;5032868;28;20439;-68
2021/07/15 03:26:45;;;;;;;8.23;6.47;;;17.80;99.90;;;;;;5050397;28;20450;-67
2021/07/15 03:29:14;;;;;;;16.33;6.60;;;18.10;99.90;;;;;;5033747;28;20497;-68
2021/07/15 03:31:43;;;;;;;8.13;7.33;;;18.10;99.90;;;;;;5052500;28;20466;-65
2021/07/15 03:34:13;;;;;;;7.93;6.70;;;18.10;99.90;;;;;;5052246;28;20427;-66
2021/07/15 03:36:48;;;;;;;8.40;7.53;;;18.20;99.90;;;;;;5035218;28;20496;-65
2021/07/15 03:39:18;;;;;;;6.47;5.87;;;18.30;99.90;;;;;;5035716;28;20413;-66
2021/07/15 03:41:47;;;;;;;8.17;7.13;;;18.30;99.90;;;;;;5034989;28;20405;-65
2021/07/15 03:44:16;;;;;;;10.10;9.17;;;18.30;99.90;;;;;;5053455;28;20491;-66
2021/07/15 03:46:46;;;;;;;6.97;6.37;;;18.20;99.90;;;;;;5035116;28;20439;-67
2021/07/15 03:49:18;;;;;;;7.23;6.50;;;18.10;99.90;;;;;;5035521;28;20457;-67
2021/07/15 03:51:48;;;;;;;11.47;7.93;;;18.00;99.90;;;;;;5035703;28;20467;-67
2021/07/15 03:54:21;;;;;;;7.63;5.60;;;18.00;99.90;;;;;;5035246;28;20414;-67
2021/07/15 03:56:52;;;;;;;7.30;6.50;;;18.10;99.90;;;;;;5034012;28;20417;-66
2021/07/15 03:59:21;;;;;;;9.57;6.67;;;18.30;99.90;;;;;;5036198;28;20804;-67
2021/07/15 04:01:58;;;;;;;8.00;6.40;;;18.30;99.90;;;;;;5035865;28;20471;-64
2021/07/15 04:04:30;;;;;;;8.00;7.23;;;18.10;99.90;;;;;;5054019;28;20421;-66
2021/07/15 04:07:00;;;;;;;9.70;8.57;;;18.00;99.90;;;;;;5035742;28;20414;-68
2021/07/15 04:09:31;;;;;;;7.27;6.57;;;17.90;99.90;;;;;;5035810;28;20997;-66
2021/07/15 04:12:00;;;;;;;7.67;6.60;;;17.80;99.90;;;;;;5053857;28;20441;-66
2021/07/15 04:14:45;;;;;;;8.10;7.40;;;17.70;99.90;;;;;;5036059;28;20538;-67
2021/07/15 04:17:15;;;;;;;8.40;6.97;;;17.60;99.90;;;;;;5036044;28;20421;-66
2021/07/15 04:19:47;;;;;;;6.27;5.67;;;17.60;99.90;;;;;;5035877;28;20776;-66
2021/07/15 04:22:16;;;;;;;8.03;6.57;;;17.90;99.90;;;;;;5036351;28;20432;-67
2021/07/15 04:24:44;;;;;;;7.40;6.70;;;18.00;99.90;;;;;;5036185;28;21074;-65
2021/07/15 04:27:14;;;;;;;7.07;6.37;;;18.20;99.90;;;;;;5053161;28;20764;-66
2021/07/15 04:29:42;;;;;;;8.60;6.60;;;18.40;99.90;;;;;;5035307;28;20418;-66
2021/07/15 04:32:26;;;;;;;7.37;6.67;;;18.40;99.90;;;;;;5035079;28;20843;-67
2021/07/15 04:34:58;;;;;;;6.80;6.10;;;18.30;99.90;;;;;;5053133;28;20763;-66
2021/07/15 04:37:27;;;;;;;8.47;6.70;;;18.30;99.90;;;;;;5034976;28;20455;-66
2021/07/15 04:39:57;;;;;;;6.77;6.03;;;18.30;99.90;;;;;;5035010;28;20467;-67
2021/07/15 04:42:26;;;;;;;5.43;4.83;;;18.30;99.90;;;;;;5035126;28;20451;-64
2021/07/15 04:44:56;;;;;;;7.10;6.40;;;18.30;99.90;;;;;;5053004;28;20446;-68
2021/07/15 04:47:25;;;;;;;7.60;6.50;;;18.20;99.90;;;;;;5034999;28;20454;-68
2021/07/15 04:49:54;;;;;;;8.00;6.50;;;18.30;99.90;;;;;;5052857;28;21229;-64
2021/07/15 04:52:25;;;;;;;5.50;5.07;;;18.30;99.90;;;;;;5035221;28;20450;-65
2021/07/15 04:54:55;;;;;;;5.50;5.00;;;18.30;99.90;;;;;;5035005;28;20450;-66
2021/07/15 04:57:25;;;;;;;5.13;4.27;;;18.40;99.90;;;;;;5034787;28;20439;-65
2021/07/15 04:59:53;;;;;;;6.50;5.73;;;18.40;99.90;;;;;;5034752;28;20430;-67
2021/07/15 05:02:23;;;;;;;7.67;5.37;;;18.40;99.90;;;;;;5052626;28;20397;-65
2021/07/15 05:04:53;;;;;;;6.37;5.20;;;18.40;99.90;;;;;;5052599;28;20402;-65
2021/07/15 05:07:23;;;;;;;8.83;5.40;;;18.60;99.90;;;;;;5034311;28;20421;-65
2021/07/15 05:09:51;;;;;;;4.87;4.47;;;18.80;99.90;;;;;;5034160;28;20996;-64
2021/07/15 05:12:20;;;;;;;5.20;4.70;;;18.80;99.90;;;;;;5034596;28;20479;-65
2021/07/15 05:14:48;;;;;;;5.30;4.80;;;18.80;99.90;;;;;;5052627;28;20473;-65
2021/07/15 05:17:17;;;;;;;5.10;4.60;;;18.90;99.90;;;;;;5034451;28;20795;-65
2021/07/15 05:19:45;;;;;;;5.00;4.40;;;18.90;99.90;;;;;;5052382;28;20473;-68
2021/07/15 05:22:14;;;;;;;5.37;4.97;;;18.90;99.90;;;;;;5034294;28;20426;-65
2021/07/15 05:24:44;;;;;;;5.10;4.30;;;19.00;99.90;;;;;;5034340;28;20468;-64
2021/07/15 05:27:12;;;;;;;5.13;4.53;;;19.20;99.90;;;;;;5034098;28;20409;-66
2021/07/15 05:29:40;;;;;;;4.10;3.80;;;19.60;99.90;;;;;;5034637;28;20398;-64
2021/07/15 05:32:09;;;;;;;3.93;3.63;;;19.80;99.90;;;;;;5034441;28;20449;-65
2021/07/15 05:34:38;;;;;;;4.90;3.57;;;19.80;99.90;;;;;;5034580;28;20438;-65
2021/07/15 05:37:07;;;;;;;7.33;6.33;;;19.70;99.90;;;;;;5033729;28;21021;-65
2021/07/15 05:39:38;;;;;;;4.83;4.40;;;19.50;99.90;;;;;;5032700;28;20504;-64
2021/07/15 05:42:08;;;;;;;4.60;4.20;;;19.50;99.90;;;;;;5034059;28;20443;-64
2021/07/15 05:44:36;;;;;;;3.80;3.50;;;19.80;99.90;;;;;;5034189;28;20455;-66
2021/07/15 05:47:07;;;;;;;3.83;3.47;;;20.20;99.90;;;;;;5033935;28;20471;-66
2021/07/15 05:49:40;;;;;;;3.13;2.80;;;20.40;99.90;;;;;;5033982;28;20647;-64
2021/07/15 05:52:09;;;;;;;4.23;3.77;;;20.50;99.90;;;;;;5033925;28;20455;-66
2021/07/15 05:54:38;;;;;;;4.47;4.07;;;20.40;99.90;;;;;;5034002;28;20719;-66
2021/07/15 05:57:08;;;;;;;6.63;4.20;;;20.30;99.90;;;;;;5033575;28;20410;-68
2021/07/15 05:59:38;;;;;;;4.57;3.67;;;20.20;99.90;;;;;;5033676;28;20941;-66
2021/07/15 06:02:07;;;;;;;5.20;4.37;;;20.20;99.90;;;;;;5051919;28;20429;-66
2021/07/15 06:04:36;;;;;;;5.23;4.37;;;20.20;99.90;;;;;;5033828;28;20504;-65
2021/07/15 06:07:05;;;;;;;5.20;4.20;;;20.20;99.90;;;;;;5033421;28;20440;-66
2021/07/15 06:09:33;;;;;;;9.67;5.33;;;20.30;99.90;;;;;;5033945;28;20492;-65
2021/07/15 06:12:02;;;;;;;6.70;4.53;;;20.40;99.90;;;;;;5051484;28;20451;-65
2021/07/15 06:14:32;;;;;;;7.20;5.03;;;20.50;99.90;;;;;;5033810;28;20444;-65
2021/07/15 06:17:00;;;;;;;4.97;4.27;;;20.70;99.90;;;;;;5033345;28;20800;-65
2021/07/15 06:19:30;;;;;;;9.20;4.70;;;20.80;99.90;;;;;;5033306;28;20413;-65
2021/07/15 06:21:59;;;;;;;5.60;3.63;;;20.80;99.90;;;;;;5051447;28;20459;-65
2021/07/15 06:24:27;;;;;;;5.87;3.63;;;20.90;99.90;;;;;;5033816;28;20486;-66
2021/07/15 06:26:56;;;;;;;3.80;3.37;;;21.00;99.90;;;;;;5033428;28;20439;-65
2021/07/15 06:29:26;;;;;;;5.23;4.10;;;21.10;99.90;;;;;;5033320;28;20813;-66
2021/07/15 06:31:55;;;;;;;7.57;5.27;;;21.10;99.90;;;;;;5033262;28;20437;-65
2021/07/15 06:34:26;;;;;;;4.70;3.20;;;21.00;99.90;;;;;;5033489;28;20410;-66
2021/07/15 06:36:54;;;;;;;7.60;2.70;;;21.00;99.90;;;;;;5050672;28;20584;-65
2021/07/15 06:39:23;;;;;;;3.07;2.13;;;20.90;99.90;;;;;;5033052;28;20827;-66
2021/07/15 06:41:55;;;;;;;5.73;3.07;;;20.90;99.90;;;;;;5050936;28;20405;-66
2021/07/15 06:44:24;;;;;;;5.80;2.50;;;21.10;99.90;;;;;;5033638;28;21002;-67
2021/07/15 06:46:53;;;;;;;3.93;3.07;;;21.30;98.50;;;;;;5033053;28;20793;-65
2021/07/15 06:49:26;;;;;;;5.47;3.67;;;21.40;97.60;;;;;;5033282;28;20465;-66
2021/07/15 06:51:57;;;;;;;3.97;3.53;;;21.70;96.40;;;;;;5033124;28;20446;-65
2021/07/15 06:54:26;;;;;;;4.20;2.83;;;21.90;92.80;;;;;;5033065;28;20424;-65
2021/07/15 06:56:54;;;;;;;9.33;3.30;;;22.20;92.00;;;;;;5050421;28;20989;-66
2021/07/15 06:59:23;;;;;;;5.50;2.50;;;22.50;81.80;;;;;;5032847;28;20414;-66
2021/07/15 07:01:51;;;;;;;4.07;2.90;;;22.60;77.00;;;;;;5033398;28;20458;-65
2021/07/15 07:04:22;;;;;;;4.57;2.30;;;22.80;61.80;;;;;;5033794;28;20784;-65
2021/07/15 07:06:51;;;;;;;3.53;2.00;;;22.50;61.70;;;;;;5051242;28;20786;-64
2021/07/15 07:09:19;;;;;;;2.60;1.70;;;22.60;55.40;;;;;;5033273;28;20435;-65
2021/07/15 07:11:47;;;;;;;3.40;1.90;;;22.60;51.40;;;;;;5033220;28;20478;-64
2021/07/15 07:14:16;;;;;;;2.60;2.10;;;22.60;61.10;;;;;;5051189;28;20767;-66
2021/07/15 07:16:44;;;;;;;2.00;1.67;;;22.90;58.60;;;;;;5032999;28;20439;-66
2021/07/15 07:19:13;;;;;;;3.53;1.97;;;22.80;49.80;;;;;;5032774;28;20439;-66
2021/07/15 07:21:43;;;;;;;1.67;1.57;;;22.80;54.00;;;;;;5051171;28;20443;-66
2021/07/15 07:24:11;;;;;;;2.90;2.33;;;23.00;47.50;;;;;;5032945;28;20538;-65
2021/07/15 07:26:39;;;;;;;4.10;2.20;;;22.90;50.80;;;;;;5033068;28;20489;-65
2021/07/15 07:29:08;;;;;;;3.10;1.97;;;23.00;58.70;;;;;;5050787;28;20450;-65
2021/07/15 07:31:36;;;;;;;3.13;2.57;;;23.10;53.50;;;;;;5034054;28;20850;-67
2021/07/15 07:34:06;;;;;;;3.13;2.00;;;23.40;53.10;;;;;;5036420;28;20438;-67
2021/07/15 07:36:34;;;;;;;2.53;1.90;;;23.70;53.60;;;;;;5036571;28;20435;-66
2021/07/15 07:39:04;;;;;;;2.07;1.53;;;23.90;47.30;;;;;;5036786;28;20482;-70
2021/07/15 07:41:33;;;;;;;4.20;2.60;;;23.90;39.30;;;;;;5036541;28;20977;-66
2021/07/15 07:44:01;;;;;;;2.30;1.70;;;23.80;41.70;;;;;;5035676;28;20485;-69
2021/07/15 07:46:30;;;;;;;2.90;1.90;;;23.50;41.40;;;;;;5040505;28;20426;-65
2021/07/15 07:48:58;;;;;;;1.90;1.33;;;23.40;49.80;;;;;;5051019;28;20466;-67
2021/07/15 07:51:30;;;;;;;2.23;2.03;;;23.30;51.60;;;;;;5050657;28;20477;-67
2021/07/15 07:53:58;;;;;;;2.13;1.53;;;23.20;53.90;;;;;;5052642;28;20475;-66
2021/07/15 07:56:28;;;;;;;2.77;2.40;;;23.30;58.60;;;;;;5042740;28;20837;-67
2021/07/15 07:58:57;;;;;;;3.60;2.53;;;23.50;55.00;;;;;;5063114;28;20923;-66
2021/07/15 08:01:25;;;;;;;2.90;2.00;;;23.70;57.00;;;;;;5054692;28;20447;-67
2021/07/15 08:03:54;;;;;;;3.33;2.30;;;23.70;49.70;;;;;;5037163;28;20489;-67
2021/07/15 08:06:23;;;;;;;2.33;1.70;;;23.80;47.40;;;;;;5047343;28;20432;-65
2021/07/15 08:08:52;;;;;;;2.00;1.80;;;23.90;41.50;;;;;;5055902;28;20428;-66
2021/07/15 08:11:20;;;;;;;3.20;1.63;;;23.70;43.40;;;;;;5073830;28;20442;-66
2021/07/15 08:13:50;;;;;;;1.80;1.50;;;23.70;45.40;;;;;;5074099;28;20469;-66
2021/07/15 08:16:19;;;;;;;2.00;1.80;;;23.60;47.40;;;;;;5051334;28;20470;-66
2021/07/15 08:18:47;;;;;;;2.37;2.17;;;23.50;55.10;;;;;;5041047;28;20984;-66
2021/07/15 08:21:18;;;;;;;2.20;1.80;;;23.70;50.40;;;;;;5072929;28;20496;-67
2021/07/15 08:23:47;;;;;;;2.07;1.87;;;23.60;45.40;;;;;;5073242;28;20518;-67
2021/07/15 08:26:16;;;;;;;3.83;2.13;;;23.70;43.90;;;;;;5055225;28;20422;-66
2021/07/15 08:28:45;;;;;;;3.43;2.07;;;23.60;47.30;;;;;;5055601;28;20439;-67
2021/07/15 08:31:15;;;;;;;2.37;2.00;;;23.50;47.80;;;;;;5056021;28;20477;-67
2021/07/15 08:33:44;;;;;;;3.43;2.17;;;23.60;46.90;;;;;;5074250;28;20472;-67
2021/07/15 08:36:13;;;;;;;2.80;2.20;;;23.50;47.60;;;;;;5047600;28;20446;-68
2021/07/15 08:38:45;;;;;;;2.47;2.13;;;23.70;52.40;;;;;;5077550;28;20431;-65
2021/07/15 08:41:14;;;;;;;2.53;2.13;;;23.90;45.90;;;;;;5071832;28;20474;-67
2021/07/15 08:43:46;;;;;;;4.63;1.80;;;24.00;41.30;;;;;;5055367;28;20443;-67
2021/07/15 08:46:16;;;;;;;2.47;2.10;;;24.10;45.20;;;;;;5035518;28;20965;-66
2021/07/15 08:48:46;;;;;;;2.47;2.27;;;24.00;37.30;;;;;;5035639;28;20470;-67
2021/07/15 08:51:15;;;;;;;2.00;1.80;;;24.20;44.50;;;;;;5051685;28;20470;-67
2021/07/15 08:53:45;;;;;;;2.40;2.10;;;24.60;43.10;;;;;;5055103;28;20474;-68
2021/07/15 08:59:01;;;;;;;2.83;2.30;;;24.90;29.70;;;;;;5050976;28;20449;-66
2021/07/15 09:01:34;;;;;;;2.37;1.77;;;25.30;28.20;;;;;;5034582;28;21016;-67
2021/07/15 09:04:04;;;;;;;2.37;1.97;;;25.30;20.90;;;;;;5034861;28;20439;-65
2021/07/15 09:06:33;;;;;;;3.13;2.00;;;25.20;21.50;;;;;;5034709;28;20701;-68
2021/07/15 09:09:02;;;;;;;2.30;1.90;;;25.30;22.30;;;;;;5034596;28;20481;-67
2021/07/15 09:11:30;;;;;;;1.93;1.73;;;25.40;23.10;;;;;;5035018;28;20450;-66
2021/07/15 09:14:00;;;;;;;4.73;2.07;;;25.70;20.90;;;;;;5048141;28;20471;-67
2021/07/15 09:16:31;;;;;;;2.77;2.20;;;25.80;19.20;;;;;;5034751;28;20427;-69
2021/07/15 09:19:05;;;;;;;2.87;1.53;;;25.70;19.40;;;;;;5053245;28;20398;-67
2021/07/15 09:21:36;;;;;;;3.47;2.20;;;25.80;16.90;;;;;;5052174;28;20439;-67
2021/07/15 09:24:25;;;;;;;2.00;1.70;;;25.60;16.30;;;;;;5051984;28;20423;-67
2021/07/15 09:26:55;;;;;;;3.10;1.87;;;25.80;16.10;;;;;;5051917;28;20764;-66
2021/07/15 09:29:24;;;;;;;5.00;2.27;;;25.70;15.90;;;;;;5034022;28;20470;-67
2021/07/15 09:31:57;;;;;;;2.67;2.17;;;25.40;17.60;;;;;;5034015;28;20442;-68
2021/07/15 09:34:30;;;;;;;2.07;1.80;;;25.40;17.40;;;;;;5032965;28;20475;-68
2021/07/15 09:36:58;;;;;;;2.10;1.90;;;25.30;17.10;;;;;;5034452;28;20766;-68
2021/07/15 09:39:44;;;;;;;2.37;2.07;;;25.50;18.00;;;;;;5051726;28;20972;-67
2021/07/15 09:42:15;;;;;;;2.37;1.90;;;25.40;15.60;;;;;;5033925;28;20417;-67
2021/07/15 09:44:49;;;;;;;2.67;1.97;;;25.20;16.30;;;;;;5033675;28;20453;-66
2021/07/15 09:47:39;;;;;;;2.67;2.20;;;25.20;17.40;;;;;;5033900;28;20477;-67
2021/07/15 09:50:27;;;;;;;2.93;2.37;;;25.30;17.20;;;;;;5051700;28;20421;-67
2021/07/15 09:53:15;;;;;;;2.20;2.00;;;25.20;18.00;;;;;;5034206;28;20410;-67
2021/07/15 09:55:44;;;;;;;2.63;2.30;;;25.10;18.30;;;;;;5033159;28;20780;-68
2021/07/15 09:58:15;;;;;;;2.90;2.60;;;25.20;17.30;;;;;;5045047;28;20451;-68
2021/07/15 10:00:45;;;;;;;2.83;1.80;;;25.40;17.20;;;;;;5089348;22;20467;-70
2021/07/15 10:03:17;;;;;;;1.80;1.60;;;25.70;18.20;;;;;;5061954;28;20867;-70
2021/07/15 10:05:52;;;;;;;2.23;2.00;;;26.10;15.30;;;;;;5071184;28;20414;-71
2021/07/15 10:08:26;;;;;;;1.87;1.67;;;26.20;15.30;;;;;;5070225;28;21004;-70
2021/07/15 10:10:55;;;;;;;2.00;1.80;;;26.40;12.90;;;;;;5061764;28;20472;-70
2021/07/15 10:13:25;;;;;;;2.30;1.70;;;26.10;11.90;;;;;;5064035;28;20461;-70
2021/07/15 10:15:53;;;;;;;2.57;2.00;;;25.90;12.50;;;;;;5073738;28;20418;-70
2021/07/15 10:18:39;;;;;;;2.77;2.30;;;26.00;12.70;;;;;;5083221;28;20836;-70
2021/07/15 10:21:10;;;;;;;2.30;1.93;;;26.00;13.30;;;;;;5060848;28;20477;-70
2021/07/15 10:23:43;;;;;;;3.17;2.97;;;26.30;11.90;;;;;;5087488;28;20422;-70
2021/07/15 10:26:27;;;;;;;2.83;1.93;;;26.50;11.90;;;;;;5074540;28;20445;-72
2021/07/15 10:28:56;;;;;;;3.23;2.10;;;26.40;11.70;;;;;;5070931;28;20464;-69
2021/07/15 10:31:25;;;;;;;2.80;1.80;;;26.30;12.20;;;;;;5075216;28;20445;-70
2021/07/15 10:33:54;;;;;;;2.93;2.60;;;26.40;12.30;;;;;;5092504;28;20465;-73
2021/07/15 10:36:25;;;;;;;2.73;2.23;;;26.90;11.80;;;;;;5087821;28;20452;-70
2021/07/15 10:38:56;;;;;;;2.50;2.17;;;27.30;11.00;;;;;;5071829;28;20422;-69
2021/07/15 10:41:26;;;;;;;2.57;2.37;;;27.50;10.50;;;;;;5053813;28;20978;-71
2021/07/15 10:43:55;;;;;;;4.00;2.20;;;27.30;9.60;;;;;;5053686;28;20442;-70
2021/07/15 10:46:28;;;;;;;2.53;2.30;;;27.20;9.50;;;;;;5053154;28;20446;-70
2021/07/15 10:49:17;;;;;;;2.80;2.37;;;26.70;10.60;;;;;;5071673;28;20487;-70
2021/07/15 10:51:48;;;;;;;3.80;2.40;;;26.60;9.90;;;;;;5055688;28;20468;-70
2021/07/15 10:54:18;;;;;;;3.10;2.50;;;26.70;10.90;;;;;;5065667;28;20880;-69
2021/07/15 10:56:47;;;;;;;3.17;2.40;;;27.00;9.80;;;;;;5062193;28;20502;-69
2021/07/15 10:59:24;;;;;;;2.30;1.80;;;27.30;8.90;;;;;;5072899;28;20461;-69
2021/07/15 11:01:55;;;;;;;2.50;2.30;;;26.90;9.70;;;;;;5071887;28;20851;-68
2021/07/15 11:04:38;;;;;;;2.60;2.40;;;26.40;11.80;;;;;;5076082;28;20457;-71
2021/07/15 11:07:23;;;;;;;3.10;2.80;;;26.40;12.80;;;;;;5072699;28;20434;-70
2021/07/15 11:09:54;;;;;;;2.90;2.43;;;26.50;11.70;;;;;;5069168;28;20465;-70
2021/07/15 11:12:35;;;;;;;2.90;2.63;;;26.80;11.90;;;;;;5074698;28;20449;-70
2021/07/15 11:15:09;;;;;;;2.40;2.20;;;26.60;11.00;;;;;;5076039;28;20468;-70
2021/07/15 11:17:48;;;;;;;2.70;2.50;;;26.70;11.90;;;;;;5077252;28;20448;-71
2021/07/15 11:20:25;;;;;;;3.50;3.20;;;26.90;11.00;;;;;;5076602;28;20525;-71
2021/07/15 11:22:56;;;;;;;2.77;2.30;;;27.00;10.30;;;;;;5077385;28;20969;-71
2021/07/15 11:25:35;;;;;;;3.27;2.90;;;27.20;10.20;;;;;;5075262;28;20494;-70
2021/07/15 11:28:20;;;;;;;2.67;2.47;;;27.40;9.00;;;;;;5076605;28;20445;-70
2021/07/15 11:30:50;;;;;;;3.10;2.80;;;27.80;8.90;;;;;;5076703;28;20842;-70
2021/07/15 11:33:36;;;;;;;3.77;2.80;;;28.00;7.30;;;;;;5077028;28;20450;-70
2021/07/15 11:36:08;;;;;;;3.13;2.90;;;28.50;6.10;;;;;;5070073;28;20538;-70
2021/07/15 11:38:40;;;;;;;3.13;2.93;;;29.00;5.70;;;;;;5056858;28;20456;-71
2021/07/15 11:41:09;;;;;;;2.93;2.73;;;28.50;5.00;;;;;;5056308;28;20948;-70
2021/07/15 11:43:53;;;;;;;3.20;2.90;;;28.50;5.90;;;;;;5056981;28;21182;-72
2021/07/15 11:46:23;;;;;;;2.77;2.57;;;28.40;4.80;;;;;;5055583;28;20453;-70
2021/07/15 11:48:57;;;;;;;3.40;3.10;;;28.50;4.40;;;;;;5072857;28;20449;-70
2021/07/15 11:51:34;;;;;;;3.10;2.80;;;28.40;4.70;;;;;;5072656;28;20438;-69
2021/07/15 11:54:44;;;;;;;2.57;2.37;;;28.00;5.40;;;;;;5055677;28;20671;-69
2021/07/15 11:57:30;;;;;;;3.20;2.10;;;28.00;5.90;;;;;;5080860;28;20465;-69
2021/07/15 12:00:21;;;;;;;2.90;2.70;;;28.10;6.90;;;;;;5067978;28;20490;-71
2021/07/15 12:03:07;;;;;;;2.87;2.57;;;28.60;5.80;;;;;;5057130;28;20438;-70
2021/07/15 12:05:36;;;;;;;7.97;3.40;;;28.30;4.70;;;;;;5058433;28;20441;-71
2021/07/15 12:08:13;;;;;;;2.80;2.60;;;28.20;5.90;;;;;;5057673;28;20983;-70
2021/07/15 12:10:44;;;;;;;2.57;2.30;;;28.30;4.50;;;;;;5058126;28;20457;-71
2021/07/15 12:13:15;;;;;;;2.50;2.30;;;28.30;5.50;;;;;;5058698;28;20438;-72
2021/07/15 12:15:45;;;;;;;4.60;3.07;;;28.10;4.10;;;;;;5074822;28;20473;-70
2021/07/15 12:18:15;;;;;;;2.77;2.57;;;27.80;4.80;;;;;;5057305;28;20471;-71
2021/07/15 12:20:46;;;;;;;2.33;2.07;;;27.50;6.10;;;;;;5058553;28;20504;-69
2021/07/15 12:23:18;;;;;;;3.50;2.97;;;27.60;6.10;;;;;;5077881;28;20433;-71
2021/07/15 12:25:51;;;;;;;2.90;2.70;;;27.50;5.80;;;;;;5058144;28;20446;-71
2021/07/15 12:28:24;;;;;;;2.60;2.40;;;27.60;5.90;;;;;;5055149;28;20465;-71
2021/07/15 12:30:55;;;;;;;5.03;2.60;;;27.70;6.20;;;;;;5072522;28;20979;-71
2021/07/15 12:33:36;;;;;;;3.27;2.97;;;27.80;6.00;;;;;;5072325;28;20936;-71
2021/07/15 12:36:10;;;;;;;7.00;2.73;;;28.00;5.80;;;;;;5055397;28;20462;-71
2021/07/15 12:38:39;;;;;;;3.40;3.10;;;28.00;4.70;;;;;;5070512;28;20431;-70
2021/07/15 12:41:19;;;;;;;2.80;2.60;;;28.10;5.30;;;;;;5055034;28;20466;-71
2021/07/15 12:43:51;;;;;;;2.43;2.23;;;28.00;5.70;;;;;;5073630;28;20406;-70
2021/07/15 12:46:22;;;;;;;3.13;2.83;;;28.00;4.70;;;;;;5055222;28;20446;-71
2021/07/15 12:48:53;;;;;;;3.17;2.60;;;27.80;6.50;;;;;;5079640;28;20446;-71
2021/07/15 12:51:25;;;;;;;4.80;2.90;;;27.70;5.40;;;;;;5068307;28;20890;-70
2021/07/15 12:53:54;;;;;;;3.60;3.30;;;27.60;4.90;;;;;;5071013;28;20446;-71
2021/07/15 12:56:27;;;;;;;3.07;2.60;;;27.60;6.60;;;;;;5057456;28;20470;-70
2021/07/15 12:59:04;;;;;;;2.90;2.70;;;27.80;5.10;;;;;;5074699;28;20528;-71
2021/07/15 13:01:36;;;;;;;3.17;2.87;;;28.00;5.30;;;;;;5070445;28;20850;-71
2021/07/15 13:04:08;;;;;;;2.63;2.20;;;28.00;4.90;;;;;;5054394;28;20533;-70
2021/07/15 13:06:38;;;;;;;3.40;3.10;;;27.90;5.20;;;;;;5053887;28;20430;-71
2021/07/15 13:09:19;;;;;;;2.20;1.97;;;27.70;4.70;;;;;;5072330;28;20513;-71
2021/07/15 13:14:37;;;;;;;2.40;2.20;;;28.00;4.80;;;;;;5054016;28;20462;-71